createdAt,value
2018-07-06T00:01:20.067Z,95059.19
2018-07-06T00:04:06.497Z,95061.56
2018-07-06T00:06:52.882Z,95062.81
2018-07-06T00:09:39.172Z,95062.64
2018-07-06T00:12:25.612Z,95066.36
2018-07-06T00:15:12.038Z,95064.00
2018-07-06T00:17:58.437Z,95059.17
2018-07-06T00:20:44.808Z,95067.70
2018-07-06T00:23:31.254Z,95063.81
2018-07-06T00:26:17.646Z,95063.94
2018-07-06T00:29:04.084Z,95063.22
2018-07-06T00:31:50.368Z,95062.22
2018-07-06T00:34:36.757Z,95063.73
2018-07-06T00:37:23.023Z,95057.78
2018-07-06T00:40:09.448Z,95060.94
2018-07-06T00:42:55.890Z,95062.58
2018-07-06T00:45:42.114Z,95068.34
2018-07-06T00:48:28.466Z,95069.72
2018-07-06T00:51:15.004Z,95059.38
2018-07-06T00:54:01.341Z,95057.43
2018-07-06T00:56:47.614Z,95065.20
2018-07-06T00:59:34.045Z,95062.35
2018-07-06T01:02:20.316Z,95064.92
2018-07-06T01:05:06.781Z,95067.93
2018-07-06T01:07:53.031Z,95067.23
2018-07-06T01:10:40.434Z,95072.12
2018-07-06T01:13:26.994Z,95075.69
2018-07-06T01:16:13.397Z,95073.91
2018-07-06T01:18:59.782Z,95072.47
2018-07-06T01:21:46.168Z,95075.41
2018-07-06T01:24:32.598Z,95075.69
2018-07-06T01:27:18.979Z,95078.48
2018-07-06T01:30:05.452Z,95080.37
2018-07-06T01:32:51.653Z,95078.64
2018-07-06T01:35:37.802Z,95076.97
2018-07-06T01:38:24.211Z,95075.57
2018-07-06T01:41:11.645Z,95075.75
2018-07-06T01:43:57.883Z,95077.83
2018-07-06T01:46:44.142Z,95085.26
2018-07-06T01:49:30.582Z,95077.94
2018-07-06T01:52:16.963Z,95086.16
2018-07-06T01:55:03.239Z,95077.62
2018-07-06T01:57:49.735Z,95080.61
2018-07-06T02:00:36.077Z,95082.72
2018-07-06T02:03:22.547Z,95080.45
2018-07-06T02:06:08.862Z,95087.06
2018-07-06T02:08:55.392Z,95086.64
2018-07-06T02:11:41.705Z,95084.31
2018-07-06T02:14:28.978Z,95087.26
2018-07-06T02:17:15.570Z,95085.47
2018-07-06T02:20:01.939Z,95085.05
2018-07-06T02:22:48.377Z,95081.12
2018-07-06T02:25:34.688Z,95084.09
2018-07-06T02:28:20.973Z,95083.51
2018-07-06T02:31:08.266Z,95088.67
2018-07-06T02:33:54.734Z,95084.98
2018-07-06T02:36:40.976Z,95082.34
2018-07-06T02:39:27.265Z,95084.34
2018-07-06T02:42:13.690Z,95079.72
2018-07-06T02:45:00.119Z,95074.24
2018-07-06T02:47:46.511Z,95079.99
2018-07-06T02:50:32.935Z,95074.34
2018-07-06T02:53:19.191Z,95082.08
2018-07-06T02:56:05.587Z,95082.94
2018-07-06T02:58:52.038Z,95083.27
2018-07-06T03:01:38.414Z,95081.33
2018-07-06T03:04:24.633Z,95085.95
2018-07-06T03:07:11.002Z,95080.89
2018-07-06T03:09:57.317Z,95089.04
2018-07-06T03:12:43.717Z,95094.72
2018-07-06T03:15:29.902Z,95090.94
2018-07-06T03:18:16.302Z,95100.61
2018-07-06T03:21:02.617Z,95095.97
2018-07-06T03:23:48.965Z,95100.10
2018-07-06T03:26:35.321Z,95096.20
2018-07-06T03:29:21.639Z,95104.67
2018-07-06T03:32:08.049Z,95105.58
2018-07-06T03:34:54.499Z,95106.55
2018-07-06T03:37:40.945Z,95106.68
2018-07-06T03:40:27.312Z,95112.09
2018-07-06T03:43:13.682Z,95114.63
2018-07-06T03:46:00.015Z,95110.16
2018-07-06T03:48:46.319Z,95117.92
2018-07-06T03:51:32.771Z,95118.39
2018-07-06T03:54:19.190Z,95122.64
2018-07-06T03:57:05.567Z,95124.33
2018-07-06T03:59:51.946Z,95132.19
2018-07-06T04:02:38.353Z,95130.25
2018-07-06T04:05:24.851Z,95135.02
2018-07-06T04:08:11.282Z,95134.25
2018-07-06T04:10:57.655Z,95134.70
2018-07-06T04:13:44.071Z,95132.45
2018-07-06T04:16:30.503Z,95121.85
2018-07-06T04:19:16.823Z,95129.56
2018-07-06T04:22:03.179Z,95130.95
2018-07-06T04:24:49.615Z,95130.23
2018-07-06T04:27:36.033Z,95129.58
2018-07-06T04:30:22.395Z,95131.91
2018-07-06T04:33:08.849Z,95123.37
2018-07-06T04:35:55.163Z,95130.95
2018-07-06T04:38:41.517Z,95133.94
2018-07-06T04:41:27.905Z,95139.86
2018-07-06T04:44:14.384Z,95135.34
2018-07-06T04:47:00.656Z,95142.89
2018-07-06T04:49:47.046Z,95140.28
2018-07-06T04:52:33.494Z,95148.88
2018-07-06T04:55:19.898Z,95146.36
2018-07-06T04:58:06.185Z,95147.68
2018-07-06T05:00:52.495Z,95155.69
2018-07-06T05:03:38.910Z,95160.48
2018-07-06T05:06:25.165Z,95156.67
2018-07-06T05:09:11.566Z,95159.92
2018-07-06T05:11:57.839Z,95162.27
2018-07-06T05:14:44.211Z,95165.66
2018-07-06T05:17:30.686Z,95162.95
2018-07-06T05:20:17.028Z,95173.91
2018-07-06T05:23:03.461Z,95168.52
2018-07-06T05:25:49.794Z,95175.84
2018-07-06T05:28:36.198Z,95171.39
2018-07-06T05:31:22.582Z,95174.63
2018-07-06T05:34:08.965Z,95175.30
2018-07-06T05:36:55.485Z,95175.64
2018-07-06T05:39:41.766Z,95182.97
2018-07-06T05:42:28.011Z,95189.39
2018-07-06T05:45:14.625Z,95185.92
2018-07-06T05:48:01.081Z,95187.81
2018-07-06T05:50:47.383Z,95196.65
2018-07-06T05:53:33.798Z,95196.81
2018-07-06T05:56:20.237Z,95200.85
2018-07-06T05:59:06.590Z,95200.09
2018-07-06T06:01:52.953Z,95199.17
2018-07-06T06:04:39.359Z,95204.53
2018-07-06T06:07:20.039Z,95214.33
2018-07-06T06:09:49.047Z,95211.95
2018-07-06T06:12:19.679Z,95214.63
2018-07-06T06:14:49.230Z,95218.80
2018-07-06T06:17:18.679Z,95223.45
2018-07-06T06:19:48.027Z,95223.98
2018-07-06T06:22:17.483Z,95232.69
2018-07-06T06:24:46.829Z,95235.03
2018-07-06T06:27:16.281Z,95236.79
2018-07-06T06:29:45.563Z,95236.56
2018-07-06T06:32:14.901Z,95240.02
2018-07-06T06:34:44.246Z,95239.14
2018-07-06T06:37:13.936Z,95236.32
2018-07-06T06:39:43.228Z,95241.39
2018-07-06T06:42:13.649Z,95240.11
2018-07-06T06:44:42.971Z,95241.97
2018-07-06T06:47:12.271Z,95248.33
2018-07-06T06:49:41.663Z,95251.22
2018-07-06T06:52:10.932Z,95250.91
2018-07-06T06:54:40.221Z,95250.25
2018-07-06T06:57:09.538Z,95260.37
2018-07-06T06:59:38.847Z,95260.59
2018-07-06T07:02:08.302Z,95260.58
2018-07-06T07:04:37.704Z,95264.12
2018-07-06T07:07:07.149Z,95260.00
2018-07-06T07:09:36.379Z,95263.70
2018-07-06T07:12:05.659Z,95261.86
2018-07-06T07:14:34.999Z,95260.27
2018-07-06T07:17:04.297Z,95272.41
2018-07-06T07:19:33.582Z,95283.89
2018-07-06T07:22:02.848Z,95278.86
2018-07-06T07:24:32.179Z,95273.48
2018-07-06T07:27:02.048Z,95287.61
2018-07-06T07:29:31.389Z,95292.14
2018-07-06T07:32:00.738Z,95288.33
2018-07-06T07:34:30.054Z,95296.34
2018-07-06T07:36:59.429Z,95290.94
2018-07-06T07:39:28.712Z,95285.51
2018-07-06T07:41:57.995Z,95293.09
2018-07-06T07:44:27.297Z,95296.98
2018-07-06T07:46:56.995Z,95293.38
2018-07-06T07:49:26.243Z,95288.02
2018-07-06T07:52:12.577Z,95291.25
2018-07-06T07:54:45.546Z,95287.27
2018-07-06T07:57:15.156Z,95290.30
2018-07-06T07:59:44.858Z,95288.81
2018-07-06T08:02:14.304Z,95293.67
2018-07-06T08:04:43.712Z,95296.64
2018-07-06T08:07:13.046Z,95299.55
2018-07-06T08:09:42.305Z,95300.41
2018-07-06T08:12:11.720Z,95300.61
2018-07-06T08:14:41.082Z,95290.82
2018-07-06T08:17:10.422Z,95300.70
2018-07-06T08:19:39.803Z,95299.78
2018-07-06T08:22:09.073Z,95293.94
2018-07-06T08:24:38.348Z,95306.13
2018-07-06T08:27:07.646Z,95308.66
2018-07-06T08:29:37.038Z,95305.05
2018-07-06T08:32:06.390Z,95323.80
2018-07-06T08:34:46.797Z,95324.84
2018-07-06T08:37:31.489Z,95329.98
2018-07-06T08:40:00.911Z,95335.78
2018-07-06T08:42:31.330Z,95333.38
2018-07-06T08:45:01.059Z,95332.00
2018-07-06T08:47:30.420Z,95345.52
2018-07-06T08:50:00.366Z,95338.40
2018-07-06T08:52:29.801Z,95332.55
2018-07-06T08:54:59.137Z,95334.54
2018-07-06T08:57:29.683Z,95341.98
2018-07-06T08:59:58.897Z,95339.90
2018-07-06T09:02:28.416Z,95347.78
2018-07-06T09:04:58.415Z,95352.86
2018-07-06T09:07:27.660Z,95361.59
2018-07-06T09:09:57.805Z,95369.09
2018-07-06T09:12:27.085Z,95366.47
2018-07-06T09:14:56.894Z,95366.89
2018-07-06T09:17:26.208Z,95373.69
2018-07-06T09:19:56.630Z,95376.25
2018-07-06T09:22:25.831Z,95375.19
2018-07-06T09:24:57.540Z,95378.55
2018-07-06T09:27:26.806Z,95382.14
2018-07-06T09:29:56.306Z,95378.48
2018-07-06T09:32:25.782Z,95381.20
2018-07-06T09:34:55.024Z,95378.55
2018-07-06T09:37:24.245Z,95384.12
2018-07-06T09:39:53.814Z,95389.08
2018-07-06T09:42:23.469Z,95386.64
2018-07-06T09:44:52.438Z,95390.08
2018-07-06T09:47:21.646Z,95387.65
2018-07-06T09:49:51.058Z,95387.03
2018-07-06T09:52:20.402Z,95392.20
2018-07-06T09:54:49.722Z,95398.15
2018-07-06T09:57:18.981Z,95396.81
2018-07-06T09:59:48.239Z,95400.46
2018-07-06T10:02:17.509Z,95396.92
2018-07-06T10:04:46.775Z,95399.66
2018-07-06T10:07:16.053Z,95400.13
2018-07-06T10:09:45.303Z,95399.23
2018-07-06T10:12:14.729Z,95401.20
2018-07-06T10:14:44.185Z,95396.38
2018-07-06T10:17:13.786Z,95394.42
2018-07-06T10:19:43.252Z,95396.22
2018-07-06T10:22:12.779Z,95396.38
2018-07-06T10:24:42.906Z,95401.61
2018-07-06T10:27:12.585Z,95393.44
2018-07-06T10:29:49.267Z,95393.45
2018-07-06T10:32:20.320Z,95395.34
2018-07-06T10:34:49.821Z,95393.44
2018-07-06T10:37:19.541Z,95391.89
2018-07-06T10:39:49.382Z,95401.05
2018-07-06T10:42:18.869Z,95404.19
2018-07-06T10:44:48.205Z,95398.55
2018-07-06T10:47:17.526Z,95409.26
2018-07-06T10:49:47.074Z,95402.94
2018-07-06T10:52:16.995Z,95398.99
2018-07-06T10:54:46.776Z,95411.98
2018-07-06T10:57:16.269Z,95406.38
2018-07-06T10:59:45.523Z,95400.05
2018-07-06T11:02:15.032Z,95392.42
2018-07-06T11:04:44.597Z,95392.69
2018-07-06T11:07:14.039Z,95391.84
2018-07-06T11:09:43.526Z,95393.38
2018-07-06T11:12:12.869Z,95402.63
2018-07-06T11:14:42.260Z,95412.13
2018-07-06T11:17:11.590Z,95403.71
2018-07-06T11:19:40.872Z,95407.34
2018-07-06T11:22:10.277Z,95403.28
2018-07-06T11:24:39.650Z,95406.44
2018-07-06T11:27:09.246Z,95410.27
2018-07-06T11:29:38.549Z,95406.45
2018-07-06T11:32:12.442Z,95410.80
2018-07-06T11:34:43.144Z,95414.70
2018-07-06T11:37:12.762Z,95420.24
2018-07-06T11:39:42.389Z,95419.95
2018-07-06T11:42:15.181Z,95417.54
2018-07-06T11:44:44.678Z,95415.75
2018-07-06T11:47:15.137Z,95415.09
2018-07-06T11:49:45.182Z,95420.83
2018-07-06T11:52:14.838Z,95407.68
2018-07-06T11:54:48.834Z,95421.66
2018-07-06T11:57:20.452Z,95419.37
2018-07-06T11:59:50.585Z,95402.06
2018-07-06T12:02:21.254Z,95412.17
2018-07-06T12:04:50.701Z,95405.19
2018-07-06T12:07:20.785Z,95420.48
2018-07-06T12:09:50.129Z,95412.64
2018-07-06T12:12:19.645Z,95410.45
2018-07-06T12:14:48.995Z,95416.20
2018-07-06T12:17:18.277Z,95412.08
2018-07-06T12:19:49.745Z,95428.05
2018-07-06T12:22:19.082Z,95418.86
2018-07-06T12:24:49.953Z,95415.92
2018-07-06T12:27:20.005Z,95411.56
2018-07-06T12:29:53.409Z,95420.91
2018-07-06T12:32:22.791Z,95413.34
2018-07-06T12:34:52.164Z,95423.34
2018-07-06T12:37:21.499Z,95413.22
2018-07-06T12:39:50.885Z,95414.63
2018-07-06T12:42:24.823Z,95412.16
2018-07-06T12:44:54.119Z,95414.38
2018-07-06T12:47:23.570Z,95413.95
2018-07-06T12:49:57.006Z,95415.46
2018-07-06T12:52:26.420Z,95413.27
2018-07-06T12:55:01.939Z,95409.64
2018-07-06T12:57:34.835Z,95401.09
2018-07-06T13:00:06.081Z,95405.34
2018-07-06T13:02:35.772Z,95399.20
2018-07-06T13:05:09.398Z,95401.91
2018-07-06T13:07:39.295Z,95399.77
2018-07-06T13:10:08.636Z,95402.80
2018-07-06T13:12:42.502Z,95404.33
2018-07-06T13:15:11.852Z,95401.03
2018-07-06T13:17:41.164Z,95404.88
2018-07-06T13:20:10.575Z,95409.31
2018-07-06T13:22:45.071Z,95404.63
2018-07-06T13:25:20.049Z,95411.26
2018-07-06T13:27:51.737Z,95404.50
2018-07-06T13:30:22.494Z,95405.75
2018-07-06T13:33:00.111Z,95405.70
2018-07-06T13:35:29.923Z,95406.39
2018-07-06T13:38:00.095Z,95407.35
2018-07-06T13:40:38.373Z,95408.03
2018-07-06T13:43:13.103Z,95404.30
2018-07-06T13:45:42.724Z,95406.48
2018-07-06T13:48:12.192Z,95401.45
2018-07-06T13:50:41.949Z,95402.59
2018-07-06T13:53:11.196Z,95402.15
2018-07-06T13:55:40.445Z,95407.29
2018-07-06T13:58:09.976Z,95403.48
2018-07-06T14:00:39.265Z,95402.85
2018-07-06T14:03:08.613Z,95405.64
2018-07-06T14:05:38.071Z,95408.20
2018-07-06T14:08:07.313Z,95406.80
2018-07-06T14:10:36.672Z,95411.88
2018-07-06T14:13:06.241Z,95407.48
2018-07-06T14:15:35.610Z,95416.21
2018-07-06T14:18:04.901Z,95424.59
2018-07-06T14:20:34.149Z,95421.95
2018-07-06T14:23:03.427Z,95421.67
2018-07-06T14:25:32.820Z,95418.47
2018-07-06T14:28:02.148Z,95418.72
2018-07-06T14:30:31.789Z,95411.94
2018-07-06T14:33:01.131Z,95412.75
2018-07-06T14:35:30.468Z,95407.49
2018-07-06T14:37:59.910Z,95409.12
2018-07-06T14:40:29.305Z,95401.96
2018-07-06T14:42:58.651Z,95409.16
2018-07-06T14:45:27.969Z,95407.69
2018-07-06T14:47:57.279Z,95409.94
2018-07-06T14:50:26.686Z,95409.12
2018-07-06T14:52:55.993Z,95408.89
2018-07-06T14:55:25.479Z,95403.63
2018-07-06T14:57:54.779Z,95400.32
2018-07-06T15:00:24.198Z,95401.71
2018-07-06T15:02:53.453Z,95405.09
2018-07-06T15:05:22.831Z,95407.83
2018-07-06T15:07:52.168Z,95401.15
2018-07-06T15:10:21.601Z,95408.50
2018-07-06T15:12:51.078Z,95414.98
2018-07-06T15:15:20.510Z,95416.47
2018-07-06T15:17:49.948Z,95421.75
2018-07-06T15:20:19.263Z,95431.53
2018-07-06T15:22:48.858Z,95426.45
2018-07-06T15:25:18.151Z,95430.67
2018-07-06T15:27:47.504Z,95431.31
2018-07-06T15:30:17.098Z,95424.77
2018-07-06T15:32:46.407Z,95434.16
2018-07-06T15:35:18.571Z,95430.64
2018-07-06T15:37:50.966Z,95424.53
2018-07-06T15:40:20.248Z,95425.19
2018-07-06T15:42:49.621Z,95433.05
2018-07-06T15:45:18.881Z,95434.52
2018-07-06T15:47:48.253Z,95433.06
2018-07-06T15:50:17.658Z,95433.73
2018-07-06T15:52:46.996Z,95430.61
2018-07-06T15:55:16.285Z,95429.52
2018-07-06T15:57:45.803Z,95428.04
2018-07-06T16:00:15.041Z,95429.72
2018-07-06T16:02:44.567Z,95427.63
2018-07-06T16:05:13.830Z,95428.33
2018-07-06T16:07:43.182Z,95431.73
2018-07-06T16:10:12.438Z,95425.44
2018-07-06T16:12:41.994Z,95427.81
2018-07-06T16:15:11.307Z,95423.39
2018-07-06T16:17:40.716Z,95422.77
2018-07-06T16:20:10.150Z,95429.97
2018-07-06T16:22:39.526Z,95427.41
2018-07-06T16:25:08.777Z,95420.69
2018-07-06T16:27:38.427Z,95428.42
2018-07-06T16:30:07.718Z,95429.38
2018-07-06T16:32:37.326Z,95432.84
2018-07-06T16:35:07.173Z,95427.64
2018-07-06T16:37:36.873Z,95439.38
2018-07-06T16:40:06.240Z,95434.48
2018-07-06T16:42:35.813Z,95430.59
2018-07-06T16:45:05.097Z,95431.85
2018-07-06T16:47:34.485Z,95431.98
2018-07-06T16:50:03.995Z,95424.36
2018-07-06T16:52:33.529Z,95437.14
2018-07-06T16:55:02.900Z,95424.67
2018-07-06T16:57:32.332Z,95429.93
2018-07-06T17:00:01.824Z,95427.01
2018-07-06T17:02:31.212Z,95426.23
2018-07-06T17:05:00.849Z,95425.84
2018-07-06T17:07:30.255Z,95427.19
2018-07-06T17:09:59.821Z,95434.94
2018-07-06T17:12:29.765Z,95438.57
2018-07-06T17:14:59.052Z,95434.17
2018-07-06T17:17:28.688Z,95445.24
2018-07-06T17:19:58.295Z,95437.61
2018-07-06T17:22:27.840Z,95439.89
2018-07-06T17:24:57.098Z,95438.51
2018-07-06T17:27:26.324Z,95435.02
2018-07-06T17:29:55.710Z,95437.70
2018-07-06T17:32:25.196Z,95444.84
2018-07-06T17:34:54.609Z,95448.55
2018-07-06T17:37:23.939Z,95441.92
2018-07-06T17:39:53.189Z,95445.66
2018-07-06T17:42:22.456Z,95446.76
2018-07-06T17:44:51.769Z,95443.83
2018-07-06T17:47:21.056Z,95447.54
2018-07-06T17:49:50.331Z,95442.72
2018-07-06T17:52:19.790Z,95445.66
2018-07-06T17:54:49.106Z,95449.11
2018-07-06T17:57:18.394Z,95454.69
2018-07-06T17:59:47.795Z,95452.80
2018-07-06T18:02:17.154Z,95451.44
2018-07-06T18:04:46.407Z,95460.26
2018-07-06T18:07:15.777Z,95459.61
2018-07-06T18:09:45.038Z,95461.23
2018-07-06T18:12:14.385Z,95456.91
2018-07-06T18:14:43.809Z,95459.14
2018-07-06T18:17:14.120Z,95458.05
2018-07-06T18:19:43.615Z,95451.37
2018-07-06T18:22:13.497Z,95457.80
2018-07-06T18:24:42.972Z,95453.20
2018-07-06T18:27:13.517Z,95457.86
2018-07-06T18:29:42.866Z,95457.97
2018-07-06T18:32:12.241Z,95457.80
2018-07-06T18:34:41.615Z,95456.23
2018-07-06T18:37:10.986Z,95461.60
2018-07-06T18:39:40.245Z,95456.39
2018-07-06T18:42:09.726Z,95462.80
2018-07-06T18:44:38.993Z,95464.78
2018-07-06T18:47:08.489Z,95464.12
2018-07-06T18:49:37.762Z,95466.07
2018-07-06T18:52:07.220Z,95466.42
2018-07-06T18:54:36.508Z,95468.93
2018-07-06T18:57:05.755Z,95467.30
2018-07-06T18:59:35.170Z,95468.66
2018-07-06T19:02:04.418Z,95470.51
2018-07-06T19:04:33.949Z,95467.23
2018-07-06T19:07:03.482Z,95469.47
2018-07-06T19:09:32.780Z,95473.16
2018-07-06T19:12:02.271Z,95480.20
2018-07-06T19:14:31.519Z,95479.83
2018-07-06T19:17:00.801Z,95480.39
2018-07-06T19:19:30.114Z,95485.20
2018-07-06T19:21:59.521Z,95493.46
2018-07-06T19:24:28.754Z,95494.66
2018-07-06T19:26:58.216Z,95497.95
2018-07-06T19:29:27.442Z,95492.61
2018-07-06T19:31:56.877Z,95495.79
2018-07-06T19:34:26.087Z,95503.57
2018-07-06T19:36:55.660Z,95514.91
2018-07-06T19:39:25.047Z,95512.34
2018-07-06T19:41:54.440Z,95515.84
2018-07-06T19:44:23.702Z,95515.89
2018-07-06T19:46:52.998Z,95520.63
2018-07-06T19:49:22.399Z,95527.17
2018-07-06T19:51:51.701Z,95524.03
2018-07-06T19:54:21.084Z,95528.60
2018-07-06T19:56:50.336Z,95532.39
2018-07-06T19:59:19.675Z,95535.74
2018-07-06T20:01:48.954Z,95537.27
2018-07-06T20:04:18.275Z,95540.66
2018-07-06T20:06:47.585Z,95544.73
2018-07-06T20:09:16.844Z,95548.52
2018-07-06T20:11:46.075Z,95555.61
2018-07-06T20:14:15.382Z,95556.27
2018-07-06T20:16:44.833Z,95562.73
2018-07-06T20:19:14.196Z,95558.91
2018-07-06T20:21:43.569Z,95559.70
2018-07-06T20:24:12.984Z,95564.52
2018-07-06T20:26:42.371Z,95560.75
2018-07-06T20:29:11.601Z,95564.98
2018-07-06T20:31:40.937Z,95567.38
2018-07-06T20:34:10.396Z,95569.30
2018-07-06T20:36:39.761Z,95569.32
2018-07-06T20:39:09.113Z,95568.60
2018-07-06T20:41:38.350Z,95570.45
2018-07-06T20:44:07.859Z,95576.27
2018-07-06T20:46:37.125Z,95576.09
2018-07-06T20:49:06.395Z,95574.69
2018-07-06T20:51:35.709Z,95577.55
2018-07-06T20:54:04.991Z,95580.58
2018-07-06T20:56:34.249Z,95573.39
2018-07-06T20:59:03.604Z,95579.97
2018-07-06T21:01:32.872Z,95574.25
2018-07-06T21:04:02.198Z,95579.91
2018-07-06T21:06:31.557Z,95577.75
2018-07-06T21:09:00.949Z,95578.70
2018-07-06T21:11:30.217Z,95580.87
2018-07-06T21:13:59.610Z,95577.16
2018-07-06T21:16:29.049Z,95578.87
2018-07-06T21:18:58.360Z,95582.98
2018-07-06T21:21:27.681Z,95588.25
2018-07-06T21:23:57.014Z,95588.14
2018-07-06T21:26:26.377Z,95583.44
2018-07-06T21:28:55.731Z,95590.69
2018-07-06T21:31:25.088Z,95589.52
2018-07-06T21:33:54.651Z,95588.03
2018-07-06T21:36:24.018Z,95593.97
2018-07-06T21:38:53.434Z,95588.43
2018-07-06T21:41:22.688Z,95591.72
2018-07-06T21:43:52.070Z,95596.31
2018-07-06T21:46:21.461Z,95591.01
2018-07-06T21:48:51.008Z,95597.46
2018-07-06T21:51:20.578Z,95596.61
2018-07-06T21:53:49.844Z,95597.86
2018-07-06T21:56:19.337Z,95598.33
2018-07-06T21:58:48.931Z,95594.99
2018-07-06T22:01:18.234Z,95597.00
2018-07-06T22:03:47.574Z,95599.62
2018-07-06T22:06:16.958Z,95597.02
2018-07-06T22:08:46.445Z,95609.50
2018-07-06T22:11:15.862Z,95598.83
2018-07-06T22:13:45.322Z,95600.81
2018-07-06T22:16:14.616Z,95605.20
2018-07-06T22:18:44.010Z,95602.80
2018-07-06T22:21:13.322Z,95601.97
2018-07-06T22:23:42.762Z,95606.80
2018-07-06T22:26:12.019Z,95608.98
2018-07-06T22:28:41.449Z,95612.80
2018-07-06T22:31:10.837Z,95615.29
2018-07-06T22:33:40.160Z,95611.28
2018-07-06T22:36:09.412Z,95617.78
2018-07-06T22:38:38.890Z,95613.37
2018-07-06T22:41:08.226Z,95615.58
2018-07-06T22:43:37.823Z,95615.98
2018-07-06T22:46:07.180Z,95616.80
2018-07-06T22:48:36.637Z,95618.48
2018-07-06T22:51:05.931Z,95611.48
2018-07-06T22:53:35.463Z,95612.72
2018-07-06T22:56:04.755Z,95607.00
2018-07-06T22:58:34.179Z,95604.86
2018-07-06T23:01:03.441Z,95605.96
2018-07-06T23:03:32.851Z,95600.27
2018-07-06T23:06:02.429Z,95607.77
2018-07-06T23:08:31.870Z,95608.88
2018-07-06T23:11:01.224Z,95607.25
2018-07-06T23:13:30.692Z,95607.03
2018-07-06T23:15:59.931Z,95606.47
2018-07-06T23:18:29.238Z,95606.25
2018-07-06T23:20:58.740Z,95605.52
2018-07-06T23:23:28.037Z,95604.06
2018-07-06T23:25:57.286Z,95603.52
2018-07-06T23:28:26.597Z,95601.47
2018-07-06T23:30:55.895Z,95605.17
2018-07-06T23:33:25.237Z,95610.44
2018-07-06T23:35:54.539Z,95603.92
2018-07-06T23:38:23.875Z,95605.72
2018-07-06T23:40:53.213Z,95602.30
2018-07-06T23:43:22.607Z,95607.59
2018-07-06T23:45:51.891Z,95597.13
2018-07-06T23:48:21.147Z,95599.95
2018-07-06T23:50:50.479Z,95603.14
2018-07-06T23:53:19.763Z,95602.63
2018-07-06T23:55:49.134Z,95605.47
2018-07-06T23:58:18.392Z,95604.18
